createdAt,value
2023-04-03T00:02:26.657Z,98050.28
2023-04-03T00:04:53.286Z,98075.84
2023-04-03T00:07:19.875Z,98081.66
2023-04-03T00:09:46.723Z,98047.03
2023-04-03T00:12:13.290Z,98059.84
2023-04-03T00:14:39.870Z,98067.84
2023-04-03T00:17:06.589Z,98029.38
2023-04-03T00:19:33.133Z,98041.66
2023-04-03T00:21:59.683Z,98043.25
2023-04-03T00:24:26.219Z,98060.63
2023-04-03T00:26:52.830Z,98097.44
2023-04-03T00:29:19.345Z,98087.03
2023-04-03T00:31:46.359Z,98089.72
2023-04-03T00:34:13.060Z,98077.44
2023-04-03T00:36:39.728Z,98081.72
2023-04-03T00:39:06.890Z,98011.06
2023-04-03T00:41:33.502Z,98060.84
2023-04-03T00:44:00.284Z,98036.56
2023-04-03T00:46:26.905Z,98112.94
2023-04-03T00:48:53.531Z,98084.06
2023-04-03T00:51:22.294Z,98029.44
2023-04-03T00:53:51.793Z,98060.06
2023-04-03T00:56:19.262Z,98099.22
2023-04-03T00:58:49.904Z,98058.38
2023-04-03T01:01:17.873Z,98040.16
2023-04-03T01:03:44.385Z,98077.59
2023-04-03T01:06:11.175Z,98061.19
2023-04-03T01:08:37.814Z,98076.47
2023-04-03T01:11:04.427Z,98093.09
2023-04-03T01:13:32.270Z,98087.78
2023-04-03T01:16:01.984Z,98070.97
2023-04-03T01:18:28.652Z,98062.47
2023-04-03T01:21:29.494Z,98078.81
2023-04-03T01:24:22.680Z,98115.50
2023-04-03T01:26:49.358Z,98089.97
2023-04-03T01:29:16.054Z,98100.31
2023-04-03T01:31:57.000Z,98083.78
2023-04-03T01:34:23.826Z,98094.94
2023-04-03T01:36:51.602Z,98105.41
2023-04-03T01:39:18.374Z,98125.56
2023-04-03T01:41:44.964Z,98078.41
2023-04-03T01:44:11.550Z,98114.09
2023-04-03T01:46:38.653Z,98082.66
2023-04-03T01:49:05.513Z,98092.31
2023-04-03T01:51:32.212Z,98110.59
2023-04-03T01:53:58.740Z,98076.81
2023-04-03T01:56:26.120Z,98037.19
2023-04-03T01:58:52.638Z,98105.47
2023-04-03T02:01:19.279Z,98120.25
2023-04-03T02:03:46.027Z,98104.66
2023-04-03T02:06:13.018Z,98068.75
2023-04-03T02:08:39.753Z,98095.00
2023-04-03T02:11:06.426Z,98114.16
2023-04-03T02:13:32.913Z,98071.63
2023-04-03T02:16:00.162Z,98092.38
2023-04-03T02:18:26.783Z,98059.44
2023-04-03T02:20:53.319Z,98097.75
2023-04-03T02:23:19.829Z,98107.44
2023-04-03T02:25:46.335Z,98056.81
2023-04-03T02:28:12.901Z,98088.94
2023-04-03T02:30:39.866Z,98117.78
2023-04-03T02:33:06.582Z,98091.56
2023-04-03T02:35:33.125Z,98084.53
2023-04-03T02:37:59.701Z,98081.09
2023-04-03T02:40:26.199Z,98074.31
2023-04-03T02:42:52.677Z,98083.06
2023-04-03T02:45:19.324Z,98099.56
2023-04-03T02:47:46.023Z,98109.06
2023-04-03T02:50:12.539Z,98078.63
2023-04-03T02:52:39.055Z,98086.41
2023-04-03T02:55:06.181Z,98107.28
2023-04-03T02:57:32.734Z,98087.97
2023-04-03T02:59:59.312Z,98099.50
2023-04-03T03:02:26.038Z,98108.25
2023-04-03T03:04:52.647Z,98030.47
2023-04-03T03:07:19.204Z,98100.97
2023-04-03T03:09:46.037Z,98107.28
2023-04-03T03:12:12.609Z,98095.97
2023-04-03T03:14:39.203Z,98117.78
2023-04-03T03:17:06.251Z,98054.94
2023-04-03T03:19:32.803Z,98070.69
2023-04-03T03:21:59.327Z,98107.28
2023-04-03T03:24:25.852Z,98058.38
2023-04-03T03:26:52.427Z,98113.50
2023-04-03T03:29:18.960Z,98107.44
2023-04-03T03:31:45.624Z,98088.25
2023-04-03T03:34:12.855Z,98086.53
2023-04-03T03:36:39.527Z,98077.75
2023-04-03T03:39:06.109Z,98058.63
2023-04-03T03:41:32.680Z,98084.59
2023-04-03T03:43:59.177Z,98103.97
2023-04-03T03:46:25.769Z,98077.75
2023-04-03T03:48:52.357Z,98096.09
2023-04-03T03:51:18.946Z,98076.88
2023-04-03T03:53:45.668Z,98086.41
2023-04-03T03:56:12.226Z,98066.53
2023-04-03T03:58:38.878Z,98080.44
2023-04-03T04:01:06.574Z,98104.94
2023-04-03T04:03:33.508Z,98076.13
2023-04-03T04:06:00.117Z,98069.16
2023-04-03T04:08:26.809Z,98076.88
2023-04-03T04:10:53.371Z,98098.94
2023-04-03T04:13:19.966Z,98084.94
2023-04-03T04:15:46.556Z,98103.97
2023-04-03T04:18:13.090Z,98050.56
2023-04-03T04:20:39.695Z,98109.28
2023-04-03T04:23:08.445Z,98145.53
2023-04-03T04:25:35.267Z,98100.53
2023-04-03T04:28:02.014Z,98105.84
2023-04-03T04:30:28.650Z,98079.78
2023-04-03T04:32:55.437Z,98092.75
2023-04-03T04:35:22.150Z,98124.84
2023-04-03T04:37:48.722Z,98098.38
2023-04-03T04:40:15.665Z,98079.50
2023-04-03T04:42:42.204Z,98077.47
2023-04-03T04:45:08.939Z,98081.97
2023-04-03T04:47:35.558Z,98089.91
2023-04-03T04:50:02.165Z,98079.00
2023-04-03T04:52:31.350Z,97963.81
2023-04-03T04:55:00.639Z,97876.38
2023-04-03T04:57:27.362Z,97927.09
2023-04-03T04:59:53.905Z,98081.69
2023-04-03T05:02:20.521Z,98104.31
2023-04-03T05:04:47.142Z,98096.25
2023-04-03T05:07:13.694Z,98099.47
2023-04-03T05:09:43.145Z,98130.38
2023-04-03T05:12:09.744Z,98110.28
2023-04-03T05:14:36.431Z,98094.03
2023-04-03T05:17:02.949Z,98062.75
2023-04-03T05:19:29.522Z,98106.38
2023-04-03T05:21:56.124Z,98114.97
2023-04-03T05:24:22.770Z,98124.19
2023-04-03T05:26:49.313Z,98104.72
2023-04-03T05:29:16.009Z,98070.44
2023-04-03T05:31:42.611Z,98119.00
2023-04-03T05:34:09.283Z,98150.09
2023-04-03T05:36:36.315Z,98099.84
2023-04-03T05:39:03.372Z,98130.28
2023-04-03T05:41:30.456Z,98104.66
2023-04-03T05:43:56.997Z,98114.69
2023-04-03T05:46:23.672Z,98097.31
2023-04-03T05:48:50.353Z,98073.06
2023-04-03T05:51:24.589Z,98127.28
2023-04-03T05:53:52.058Z,98163.06
2023-04-03T05:56:18.541Z,98103.38
2023-04-03T05:58:45.211Z,98130.56
2023-04-03T06:01:12.643Z,98126.97
2023-04-03T06:03:40.983Z,98115.47
2023-04-03T06:06:09.014Z,98174.03
2023-04-03T06:08:36.078Z,98122.59
2023-04-03T06:11:03.463Z,98110.31
2023-04-03T06:13:30.647Z,98041.78
2023-04-03T06:15:57.892Z,98031.94
2023-04-03T06:18:24.402Z,98156.84
2023-04-03T06:20:51.330Z,98064.53
2023-04-03T06:23:18.510Z,98131.75
2023-04-03T06:25:45.305Z,98133.56
2023-04-03T06:28:12.093Z,98132.06
2023-04-03T06:30:39.029Z,98084.84
2023-04-03T06:33:05.918Z,98097.31
2023-04-03T06:35:32.518Z,98148.94
2023-04-03T06:37:59.048Z,98133.94
2023-04-03T06:40:26.458Z,98134.09
2023-04-03T06:42:52.952Z,98145.41
2023-04-03T06:45:20.290Z,98168.25
2023-04-03T06:47:47.041Z,98171.75
2023-04-03T06:50:16.256Z,98156.03
2023-04-03T06:52:42.918Z,98151.09
2023-04-03T06:55:10.242Z,98105.63
2023-04-03T06:57:37.081Z,98135.91
2023-04-03T07:00:05.250Z,98137.69
2023-04-03T07:02:31.873Z,98131.53
2023-04-03T07:04:58.494Z,98118.50
2023-04-03T07:07:25.254Z,98165.78
2023-04-03T07:09:52.151Z,98183.19
2023-04-03T07:12:18.855Z,98152.69
2023-04-03T07:14:45.431Z,98129.81
2023-04-03T07:17:12.007Z,98195.16
2023-04-03T07:19:38.653Z,98161.06
2023-04-03T07:22:05.212Z,98175.16
2023-04-03T07:24:31.773Z,98122.88
2023-04-03T07:26:58.299Z,98191.88
2023-04-03T07:29:24.935Z,98177.72
2023-04-03T07:31:51.552Z,98165.63
2023-04-03T07:34:18.161Z,98192.53
2023-04-03T07:36:44.685Z,98168.03
2023-04-03T07:39:12.177Z,98195.22
2023-04-03T07:41:39.247Z,98158.66
2023-04-03T07:44:06.500Z,98145.31
2023-04-03T07:46:33.058Z,98143.00
2023-04-03T07:48:59.659Z,98204.69
2023-04-03T07:51:27.201Z,98178.28
2023-04-03T07:53:53.717Z,98193.00
2023-04-03T07:56:21.461Z,98181.81
2023-04-03T07:58:48.092Z,98189.69
2023-04-03T08:01:14.638Z,98192.28
2023-04-03T08:03:41.487Z,98156.50
2023-04-03T08:06:11.935Z,98226.41
2023-04-03T08:08:42.305Z,98196.50
2023-04-03T08:11:09.462Z,98208.03
2023-04-03T08:13:36.756Z,98155.66
2023-04-03T08:16:11.344Z,98172.09
2023-04-03T08:18:38.103Z,98201.81
2023-04-03T08:21:11.664Z,98215.31
2023-04-03T08:23:38.966Z,98192.22
2023-04-03T08:26:13.356Z,98111.84
2023-04-03T08:28:40.019Z,98171.16
2023-04-03T08:31:07.999Z,98232.28
2023-04-03T08:33:36.851Z,98212.31
2023-04-03T08:36:05.292Z,98165.19
2023-04-03T08:38:32.104Z,98236.22
2023-04-03T08:41:12.531Z,98239.91
2023-04-03T08:44:12.867Z,98210.06
2023-04-03T08:46:48.377Z,98248.94
2023-04-03T08:49:28.180Z,98197.16
2023-04-03T08:51:54.819Z,98237.28
2023-04-03T08:54:30.053Z,98237.22
2023-04-03T08:56:57.030Z,98203.03
2023-04-03T08:59:29.350Z,98259.06
2023-04-03T09:01:55.984Z,98204.06
2023-04-03T09:04:22.634Z,98221.63
2023-04-03T09:06:55.581Z,98214.56
2023-04-03T09:09:42.151Z,98170.69
2023-04-03T09:12:26.592Z,98266.84
2023-04-03T09:15:16.434Z,98221.97
2023-04-03T09:17:56.796Z,98224.91
2023-04-03T09:20:45.914Z,98249.50
2023-04-03T09:23:30.173Z,98261.91
2023-04-03T09:26:17.803Z,98247.28
2023-04-03T09:28:50.360Z,98248.16
2023-04-03T09:31:24.672Z,98262.88
2023-04-03T09:33:53.549Z,98232.84
2023-04-03T09:36:43.256Z,98259.50
2023-04-03T09:39:17.466Z,98239.13
2023-04-03T09:42:02.581Z,98258.19
2023-04-03T09:44:34.212Z,98225.22
2023-04-03T09:47:01.429Z,98205.03
2023-04-03T09:49:28.068Z,98264.59
2023-04-03T09:51:54.812Z,98236.28
2023-04-03T09:54:38.318Z,98238.19
2023-04-03T09:57:11.401Z,98247.63
2023-04-03T09:59:41.135Z,98251.34
2023-04-03T10:02:07.512Z,98263.69
2023-04-03T10:04:43.324Z,98237.38
2023-04-03T10:07:37.984Z,98266.22
2023-04-03T10:10:18.394Z,98246.31
2023-04-03T10:12:45.092Z,98246.13
2023-04-03T10:15:15.566Z,98194.53
2023-04-03T10:17:45.031Z,98250.94
2023-04-03T10:20:32.707Z,98254.25
2023-04-03T10:23:05.220Z,98241.50
2023-04-03T10:25:37.707Z,98248.38
2023-04-03T10:28:46.430Z,98242.91
2023-04-03T10:31:38.542Z,98216.69
2023-04-03T10:34:24.296Z,98249.16
2023-04-03T10:36:59.805Z,98225.44
2023-04-03T10:39:38.651Z,98250.94
2023-04-03T10:42:33.452Z,98250.94
2023-04-03T10:45:09.512Z,98144.34
2023-04-03T10:48:09.843Z,98241.59
2023-04-03T10:51:12.241Z,98239.13
2023-04-03T10:53:57.025Z,98235.72
2023-04-03T10:56:40.550Z,98240.00
2023-04-03T10:59:28.905Z,98181.44
2023-04-03T11:02:01.699Z,98234.84
2023-04-03T11:04:29.887Z,98205.88
2023-04-03T11:07:16.833Z,98234.97
2023-04-03T11:09:44.764Z,98194.78
2023-04-03T11:12:16.146Z,98193.19
2023-04-03T11:14:42.707Z,98202.81
2023-04-03T11:17:17.679Z,98173.00
2023-04-03T11:19:52.786Z,98156.72
2023-04-03T11:22:27.879Z,98218.03
2023-04-03T11:25:04.135Z,98172.28
2023-04-03T11:27:34.994Z,98216.31
2023-04-03T11:30:01.947Z,98169.66
2023-04-03T11:32:55.666Z,98223.91
2023-04-03T11:35:22.298Z,98193.50
2023-04-03T11:37:50.483Z,98181.75
2023-04-03T11:40:17.040Z,98204.03
2023-04-03T11:42:46.567Z,98201.16
2023-04-03T11:45:28.081Z,98202.22
2023-04-03T11:48:16.721Z,98178.69
2023-04-03T11:50:48.497Z,98170.66
2023-04-03T11:53:14.967Z,98191.94
2023-04-03T11:55:44.395Z,98197.03
2023-04-03T11:58:17.770Z,98195.28
2023-04-03T12:00:58.425Z,98172.59
2023-04-03T12:03:25.799Z,98190.16
2023-04-03T12:06:18.479Z,98113.00
2023-04-03T12:08:49.818Z,98161.38
2023-04-03T12:11:19.758Z,98136.97
2023-04-03T12:13:56.101Z,98190.16
2023-04-03T12:16:38.005Z,98186.84
2023-04-03T12:19:22.207Z,98182.53
2023-04-03T12:21:57.858Z,98188.50
2023-04-03T12:24:31.136Z,98185.97
2023-04-03T12:27:01.022Z,98188.50
2023-04-03T12:29:34.219Z,98185.97
2023-04-03T12:32:30.342Z,98178.31
2023-04-03T12:35:15.285Z,98184.28
2023-04-03T12:38:04.888Z,98026.19
2023-04-03T12:40:43.733Z,98177.50
2023-04-03T12:43:29.039Z,98170.75
2023-04-03T12:46:07.934Z,98163.91
2023-04-03T12:48:46.470Z,98170.81
2023-04-03T12:51:17.890Z,98072.75
2023-04-03T12:53:44.656Z,98037.66
2023-04-03T12:56:32.154Z,98158.38
2023-04-03T12:59:24.664Z,98089.28
2023-04-03T13:02:01.144Z,98142.78
2023-04-03T13:04:32.122Z,98141.06
2023-04-03T13:06:58.746Z,98120.16
2023-04-03T13:09:32.304Z,98126.22
2023-04-03T13:12:03.356Z,98150.72
2023-04-03T13:14:30.021Z,98144.63
2023-04-03T13:17:00.184Z,98167.38
2023-04-03T13:19:29.254Z,98128.69
2023-04-03T13:22:12.257Z,98138.50
2023-04-03T13:24:38.952Z,98127.13
2023-04-03T13:27:05.803Z,98139.69
2023-04-03T13:29:36.891Z,98105.47
2023-04-03T13:32:04.298Z,98138.44
2023-04-03T13:34:39.715Z,98130.66
2023-04-03T13:37:06.262Z,98155.75
2023-04-03T13:39:34.408Z,98121.91
2023-04-03T13:42:02.800Z,98160.06
2023-04-03T13:44:35.244Z,98104.34
2023-04-03T13:47:22.088Z,98158.06
2023-04-03T13:50:01.074Z,98158.88
2023-04-03T13:52:29.719Z,98158.06
2023-04-03T13:55:04.147Z,98053.97
2023-04-03T13:57:32.347Z,98152.84
2023-04-03T13:59:58.910Z,98133.34
2023-04-03T14:02:33.635Z,98138.66
2023-04-03T14:05:02.427Z,98118.50
2023-04-03T14:07:30.312Z,98116.88
2023-04-03T14:09:56.868Z,98119.72
2023-04-03T14:12:31.357Z,98105.63
2023-04-03T14:15:02.527Z,98120.59
2023-04-03T14:17:29.619Z,98111.38
2023-04-03T14:19:57.265Z,98101.53
2023-04-03T14:22:26.031Z,98081.38
2023-04-03T14:24:53.367Z,98117.25
2023-04-03T14:27:28.387Z,98143.44
2023-04-03T14:29:55.851Z,98049.84
2023-04-03T14:32:23.015Z,98124.09
2023-04-03T14:34:50.112Z,98118.94
2023-04-03T14:37:19.118Z,98125.25
2023-04-03T14:39:45.937Z,98128.69
2023-04-03T14:42:14.485Z,98135.13
2023-04-03T14:44:41.709Z,98099.25
2023-04-03T14:47:27.846Z,98077.53
2023-04-03T14:49:57.601Z,98102.91
2023-04-03T14:52:26.380Z,98111.00
2023-04-03T14:54:53.448Z,98076.78
2023-04-03T14:57:20.135Z,98082.03
2023-04-03T14:59:46.692Z,98128.31
2023-04-03T15:02:28.652Z,98119.84
2023-04-03T15:04:58.942Z,98078.38
2023-04-03T15:07:26.318Z,98102.31
2023-04-03T15:09:52.836Z,98081.72
2023-04-03T15:12:19.382Z,97965.47
2023-04-03T15:14:51.776Z,98078.97
2023-04-03T15:17:22.141Z,98130.59
2023-04-03T15:19:48.675Z,98131.31
2023-04-03T15:22:16.251Z,98126.13
2023-04-03T15:24:43.316Z,98122.69
2023-04-03T15:27:10.739Z,98113.91
2023-04-03T15:29:37.404Z,98116.53
2023-04-03T15:32:04.240Z,98101.75
2023-04-03T15:34:31.498Z,98093.81
2023-04-03T15:36:58.182Z,98097.53
2023-04-03T15:39:26.390Z,98110.34
2023-04-03T15:41:53.327Z,98110.34
2023-04-03T15:44:20.120Z,98064.19
2023-04-03T15:46:47.256Z,98064.13
2023-04-03T15:49:13.910Z,98113.03
2023-04-03T15:51:40.619Z,98119.31
2023-04-03T15:54:07.142Z,98070.22
2023-04-03T15:56:33.698Z,98078.16
2023-04-03T15:59:00.204Z,98104.28
2023-04-03T16:01:26.740Z,98121.84
2023-04-03T16:03:53.354Z,98111.38
2023-04-03T16:06:19.945Z,98113.03
2023-04-03T16:08:47.521Z,98091.19
2023-04-03T16:11:14.016Z,98128.63
2023-04-03T16:13:41.400Z,98081.59
2023-04-03T16:16:08.005Z,98106.63
2023-04-03T16:18:35.236Z,98126.81
2023-04-03T16:21:01.923Z,98122.41
2023-04-03T16:23:28.459Z,98098.91
2023-04-03T16:25:54.978Z,98122.34
2023-04-03T16:28:21.646Z,98110.03
2023-04-03T16:30:48.301Z,98123.97
2023-04-03T16:33:14.839Z,98105.63
2023-04-03T16:35:43.016Z,98160.47
2023-04-03T16:38:09.647Z,98121.28
2023-04-03T16:40:36.267Z,98124.59
2023-04-03T16:43:02.894Z,98145.50
2023-04-03T16:45:29.444Z,98130.41
2023-04-03T16:47:56.077Z,98172.22
2023-04-03T16:50:22.744Z,98150.13
2023-04-03T16:52:49.366Z,98153.78
2023-04-03T16:55:16.039Z,98150.22
2023-04-03T16:57:42.579Z,98122.25
2023-04-03T17:00:09.613Z,98151.03
2023-04-03T17:02:36.165Z,98150.88
2023-04-03T17:05:02.675Z,98128.31
2023-04-03T17:07:29.243Z,98144.69
2023-04-03T17:09:55.926Z,98150.88
2023-04-03T17:12:22.544Z,98137.69
2023-04-03T17:14:49.214Z,98167.06
2023-04-03T17:17:15.922Z,98158.53
2023-04-03T17:19:42.573Z,98166.31
2023-04-03T17:22:09.795Z,98176.81
2023-04-03T17:24:36.880Z,98174.19
2023-04-03T17:27:03.593Z,98172.44
2023-04-03T17:29:30.137Z,98155.09
2023-04-03T17:31:56.717Z,98153.34
2023-04-03T17:34:23.433Z,98178.63
2023-04-03T17:36:49.996Z,98180.38
2023-04-03T17:39:16.632Z,98166.38
2023-04-03T17:41:45.701Z,98171.94
2023-04-03T17:44:12.792Z,98117.59
2023-04-03T17:46:39.467Z,98182.28
2023-04-03T17:49:06.206Z,98169.97
2023-04-03T17:51:34.494Z,98170.13
2023-04-03T17:54:01.155Z,98182.19
2023-04-03T17:56:27.833Z,98165.88
2023-04-03T17:58:55.249Z,98149.00
2023-04-03T18:01:24.246Z,98151.69
2023-04-03T18:03:52.920Z,98185.78
2023-04-03T18:06:20.470Z,98192.00
2023-04-03T18:08:51.332Z,98176.13
2023-04-03T18:11:17.869Z,98210.06
2023-04-03T18:13:44.477Z,98220.56
2023-04-03T18:16:11.682Z,98196.75
2023-04-03T18:18:38.330Z,98222.00
2023-04-03T18:21:05.332Z,98218.56
2023-04-03T18:23:32.708Z,98236.72
2023-04-03T18:25:59.988Z,98233.16
2023-04-03T18:28:27.083Z,98226.97
2023-04-03T18:30:53.590Z,98176.56
2023-04-03T18:33:20.220Z,98238.41
2023-04-03T18:35:46.724Z,98198.38
2023-04-03T18:38:14.216Z,98226.88
2023-04-03T18:40:42.589Z,98203.25
2023-04-03T18:43:09.257Z,98260.19
2023-04-03T18:45:35.822Z,98207.59
2023-04-03T18:48:02.583Z,98245.25
2023-04-03T18:50:29.127Z,98251.22
2023-04-03T18:52:55.692Z,98251.16
2023-04-03T18:55:22.197Z,98241.50
2023-04-03T18:57:49.436Z,98253.84
2023-04-03T19:00:17.522Z,98282.44
2023-04-03T19:02:44.670Z,98262.50
2023-04-03T19:05:12.863Z,98214.94
2023-04-03T19:07:39.487Z,98218.53
2023-04-03T19:10:06.758Z,98246.47
2023-04-03T19:12:33.381Z,98257.63
2023-04-03T19:14:59.917Z,98283.06
2023-04-03T19:17:28.626Z,98278.75
2023-04-03T19:19:55.340Z,98279.88
2023-04-03T19:22:21.908Z,98259.81
2023-04-03T19:24:48.426Z,98265.78
2023-04-03T19:27:15.032Z,98236.75
2023-04-03T19:29:41.537Z,98232.53
2023-04-03T19:32:09.258Z,98268.13
2023-04-03T19:34:37.377Z,98263.91
2023-04-03T19:37:06.209Z,98259.28
2023-04-03T19:39:35.288Z,98286.34
2023-04-03T19:42:02.694Z,98279.44
2023-04-03T19:44:32.429Z,98261.06
2023-04-03T19:46:59.503Z,98305.53
2023-04-03T19:49:26.206Z,98257.47
2023-04-03T19:51:55.448Z,98295.09
2023-04-03T19:54:22.405Z,98275.53
2023-04-03T19:56:49.225Z,98281.81
2023-04-03T19:59:16.507Z,98277.44
2023-04-03T20:01:43.322Z,98270.28
2023-04-03T20:04:09.869Z,98279.97
2023-04-03T20:06:36.804Z,98259.28
2023-04-03T20:09:03.880Z,98278.38
2023-04-03T20:11:30.501Z,98273.88
2023-04-03T20:13:57.151Z,98276.50
2023-04-03T20:16:25.608Z,98309.81
2023-04-03T20:18:55.108Z,98285.22
2023-04-03T20:21:22.830Z,98276.72
2023-04-03T20:23:51.250Z,98280.06
2023-04-03T20:26:23.703Z,98303.91
2023-04-03T20:28:51.340Z,98288.75
2023-04-03T20:31:18.205Z,98203.19
2023-04-03T20:33:46.144Z,98262.56
2023-04-03T20:36:12.720Z,98242.53
2023-04-03T20:38:39.385Z,98250.38
2023-04-03T20:41:06.014Z,98275.84
2023-04-03T20:43:32.552Z,98287.16
2023-04-03T20:46:03.043Z,98257.47
2023-04-03T20:48:30.203Z,98292.63
2023-04-03T20:50:58.124Z,98294.94
2023-04-03T20:53:24.837Z,98260.09
2023-04-03T20:55:59.927Z,98257.63
2023-04-03T20:58:28.681Z,98267.88
2023-04-03T21:00:56.530Z,98261.22
2023-04-03T21:03:25.195Z,98231.72
2023-04-03T21:05:59.690Z,98296.25
2023-04-03T21:09:03.365Z,98298.81
2023-04-03T21:12:07.535Z,98296.25
2023-04-03T21:15:14.742Z,98293.69
2023-04-03T21:18:07.782Z,98272.56
2023-04-03T21:20:34.458Z,98261.28
2023-04-03T21:23:01.001Z,98208.03
2023-04-03T21:25:27.780Z,98272.00
2023-04-03T21:27:54.675Z,98222.81
2023-04-03T21:30:21.570Z,98266.53
2023-04-03T21:32:48.198Z,98276.22
2023-04-03T21:35:14.847Z,98261.44
2023-04-03T21:37:41.336Z,98278.91
2023-04-03T21:40:08.500Z,98261.34
2023-04-03T21:42:35.038Z,98263.31
2023-04-03T21:45:02.088Z,98225.59
2023-04-03T21:47:28.921Z,98290.28
2023-04-03T21:49:55.647Z,98248.31
2023-04-03T21:52:22.198Z,98240.50
2023-04-03T21:54:48.886Z,98269.44
2023-04-03T21:57:15.469Z,98268.50
2023-04-03T21:59:42.456Z,98264.97
2023-04-03T22:02:09.083Z,98244.06
2023-04-03T22:04:35.668Z,98257.03
2023-04-03T22:07:03.509Z,98258.72
2023-04-03T22:09:30.041Z,98248.16
2023-04-03T22:11:57.066Z,98254.34
2023-04-03T22:14:23.629Z,98251.63
2023-04-03T22:16:50.835Z,98264.59
2023-04-03T22:19:17.367Z,98263.03
2023-04-03T22:21:43.970Z,98263.59
2023-04-03T22:24:10.617Z,98276.72
2023-04-03T22:26:38.552Z,98264.38
2023-04-03T22:29:05.789Z,98245.38
2023-04-03T22:31:32.463Z,98273.44
2023-04-03T22:33:59.054Z,98274.25
2023-04-03T22:36:26.101Z,98268.84
2023-04-03T22:38:52.641Z,98270.59
2023-04-03T22:41:19.171Z,98266.31
2023-04-03T22:43:45.772Z,98265.34
2023-04-03T22:46:12.284Z,98252.53
2023-04-03T22:48:41.009Z,98264.59
2023-04-03T22:51:08.266Z,98254.03
2023-04-03T22:53:35.630Z,98224.25
2023-04-03T22:56:03.379Z,98256.88
2023-04-03T22:58:30.114Z,98240.88
2023-04-03T23:01:07.434Z,98243.44
2023-04-03T23:03:34.980Z,98259.22
2023-04-03T23:06:01.795Z,98246.13
2023-04-03T23:08:28.845Z,98282.75
2023-04-03T23:10:57.279Z,98260.97
2023-04-03T23:13:27.384Z,98257.53
2023-04-03T23:15:57.735Z,98251.47
2023-04-03T23:18:25.141Z,98261.75
2023-04-03T23:20:52.034Z,98223.25
2023-04-03T23:23:22.385Z,98264.47
2023-04-03T23:25:56.836Z,98254.84
2023-04-03T23:28:23.616Z,98216.31
2023-04-03T23:30:51.815Z,98261.91
2023-04-03T23:33:18.360Z,98254.84
2023-04-03T23:35:48.647Z,98244.31
2023-04-03T23:38:15.786Z,98255.66
2023-04-03T23:40:42.514Z,98197.09
2023-04-03T23:43:09.065Z,98258.13
2023-04-03T23:45:35.780Z,98248.53
2023-04-03T23:48:02.309Z,98248.53
2023-04-03T23:50:28.860Z,98253.03
2023-04-03T23:52:55.417Z,98239.06
2023-04-03T23:55:21.964Z,98252.09
2023-04-03T23:57:48.477Z,98243.50
